Time;durP1;ratioP1;P1;durP2;ratioP2;P2;SDS_P1;SDS_P2;PMS_P1;PMS_P2;Temp;Humidity;BMP_temperature;BMP_pressure;BME280_temperature;BME280_humidity;BME280_pressure;Samples;Min_cycle;Max_cycle;Signal;HPM_P1;HPM_P2
2022/05/16 00:01:38;;;;;;;1.33;1.10;;;19.50;68.50;;;;;;4975502;28;20433;-79
2022/05/16 00:04:04;;;;;;;4.10;1.35;;;19.50;68.20;;;;;;4974664;28;20022;-79
2022/05/16 00:06:30;;;;;;;1.75;1.20;;;19.50;68.20;;;;;;4974243;28;20027;-79
2022/05/16 00:08:55;;;;;;;2.50;1.40;;;19.40;68.20;;;;;;4973448;28;20027;-79
2022/05/16 00:11:21;;;;;;;1.45;1.17;;;19.40;68.50;;;;;;4974225;28;20058;-79
2022/05/16 00:13:47;;;;;;;4.65;1.20;;;19.40;68.50;;;;;;4973988;28;20183;-79
2022/05/16 00:16:13;;;;;;;1.45;1.13;;;19.30;68.70;;;;;;4974518;28;20070;-79
2022/05/16 00:18:38;;;;;;;2.10;1.20;;;19.30;68.60;;;;;;4974421;28;20468;-80
2022/05/16 00:21:05;;;;;;;4.72;1.30;;;19.30;68.50;;;;;;4973432;28;20030;-78
2022/05/16 00:23:31;;;;;;;1.98;1.33;;;19.30;68.90;;;;;;4974922;28;20054;-78
2022/05/16 00:25:57;;;;;;;2.28;1.10;;;19.30;68.60;;;;;;4974211;28;20082;-78
2022/05/16 00:28:22;;;;;;;1.92;1.25;;;19.20;69.00;;;;;;4974871;28;20023;-78
2022/05/16 00:30:48;;;;;;;4.07;1.30;;;19.20;69.00;;;;;;4973592;28;20023;-78
2022/05/16 00:33:14;;;;;;;3.05;1.35;;;19.20;69.20;;;;;;4973752;28;20030;-78
2022/05/16 00:35:40;;;;;;;4.32;1.35;;;19.20;69.10;;;;;;4973659;28;20027;-78
2022/05/16 00:38:06;;;;;;;3.47;1.35;;;19.20;69.60;;;;;;4974287;28;20476;-78
2022/05/16 00:40:32;;;;;;;5.03;1.42;;;19.20;69.30;;;;;;4973654;28;20090;-78
2022/05/16 00:43:10;;;;;;;2.13;1.30;;;19.20;69.80;;;;;;4974091;28;20033;-79
2022/05/16 00:45:36;;;;;;;2.85;1.40;;;19.20;70.20;;;;;;4974823;28;20031;-81
2022/05/16 00:48:03;;;;;;;2.17;1.40;;;19.10;70.70;;;;;;4973386;28;20107;-80
2022/05/16 00:50:31;;;;;;;4.00;1.33;;;19.10;70.50;;;;;;4973853;28;20038;-80
2022/05/16 00:52:57;;;;;;;3.03;1.20;;;19.10;70.40;;;;;;4957194;28;20122;-80
2022/05/16 00:55:27;;;;;;;5.60;1.70;;;19.00;71.40;;;;;;4973632;28;20072;-78
2022/05/16 00:57:56;;;;;;;2.47;1.33;;;19.10;71.40;;;;;;4973998;28;20062;-77
2022/05/16 01:00:28;;;;;;;3.10;1.50;;;19.10;71.70;;;;;;4974542;28;20031;-79
2022/05/16 01:05:43;;;;;;;2.47;1.50;;;18.90;72.40;;;;;;4974398;28;20037;-80
2022/05/16 01:08:12;;;;;;;3.35;1.30;;;18.90;72.70;;;;;;4974156;28;20023;-80
2022/05/16 01:10:38;;;;;;;2.05;1.23;;;18.90;73.00;;;;;;4973766;28;20031;-79
2022/05/16 01:13:05;;;;;;;2.33;1.20;;;18.90;73.20;;;;;;4972706;28;20026;-78
2022/05/16 01:15:37;;;;;;;2.47;1.60;;;18.80;73.70;;;;;;4973343;28;20030;-79
2022/05/16 01:18:05;;;;;;;2.40;1.30;;;18.70;74.60;;;;;;4972495;28;20375;-78
2022/05/16 01:20:56;;;;;;;2.63;1.52;;;18.70;75.00;;;;;;4973288;28;20362;-79
2022/05/16 01:23:25;;;;;;;4.75;1.38;;;18.60;75.70;;;;;;4972983;28;20404;-78
2022/05/16 01:25:52;;;;;;;2.97;1.42;;;18.60;76.10;;;;;;4972524;28;20070;-78
2022/05/16 01:28:21;;;;;;;3.35;1.60;;;18.50;75.60;;;;;;4973088;28;20026;-79
2022/05/16 01:30:47;;;;;;;3.58;1.50;;;18.50;76.00;;;;;;4972997;28;20058;-78
2022/05/16 01:33:17;;;;;;;3.55;1.65;;;18.60;75.00;;;;;;4966124;28;20042;-79
2022/05/16 01:35:44;;;;;;;2.45;1.52;;;18.60;74.70;;;;;;4973537;28;20041;-79
2022/05/16 01:38:19;;;;;;;5.60;1.52;;;18.60;75.10;;;;;;4973095;28;20468;-79
2022/05/16 01:41:02;;;;;;;4.53;1.70;;;18.50;75.60;;;;;;4973235;28;20512;-78
2022/05/16 01:43:41;;;;;;;5.63;1.70;;;18.60;75.40;;;;;;4974237;28;20034;-79
2022/05/16 01:46:09;;;;;;;3.45;1.60;;;18.60;75.70;;;;;;4973633;28;20031;-80
2022/05/16 01:48:35;;;;;;;5.32;1.70;;;18.70;75.80;;;;;;4973193;28;20077;-79
2022/05/16 01:51:05;;;;;;;2.85;1.65;;;18.60;76.00;;;;;;4972804;28;20027;-79
2022/05/16 01:53:31;;;;;;;3.40;1.90;;;18.60;76.90;;;;;;4974256;28;20071;-79
2022/05/16 01:55:57;;;;;;;4.78;1.67;;;18.40;77.20;;;;;;4973006;28;20035;-79
2022/05/16 01:58:23;;;;;;;3.97;1.50;;;18.30;78.20;;;;;;4976778;28;20038;-79
2022/05/16 02:00:50;;;;;;;3.88;1.55;;;18.30;78.90;;;;;;4976434;28;20118;-78
2022/05/16 02:03:16;;;;;;;3.30;1.55;;;18.30;78.10;;;;;;4976588;28;20121;-79
2022/05/16 02:05:43;;;;;;;2.85;1.58;;;18.30;77.80;;;;;;4977501;28;20027;-79
2022/05/16 02:08:10;;;;;;;3.85;1.40;;;18.20;78.50;;;;;;4975748;28;20644;-79
2022/05/16 02:10:35;;;;;;;4.38;2.00;;;18.20;78.60;;;;;;4977206;28;20110;-79
2022/05/16 02:13:03;;;;;;;4.05;1.65;;;18.20;78.80;;;;;;4975577;28;20117;-79
2022/05/16 02:15:32;;;;;;;3.40;1.77;;;18.30;78.90;;;;;;4976419;28;20041;-81
2022/05/16 02:17:58;;;;;;;4.60;1.77;;;18.30;78.70;;;;;;4976956;28;20073;-80
2022/05/16 02:20:25;;;;;;;4.90;1.98;;;18.30;78.90;;;;;;4977404;28;20464;-81
2022/05/16 02:25:39;;;;;;;3.78;1.90;;;18.50;78.90;;;;;;4977298;28;20037;-80
2022/05/16 02:28:10;;;;;;;4.57;2.15;;;18.40;79.10;;;;;;4975836;28;20030;-80
2022/05/16 02:30:36;;;;;;;3.63;1.80;;;18.50;79.40;;;;;;4976038;28;20038;-80
2022/05/16 02:33:03;;;;;;;4.63;2.13;;;18.40;80.10;;;;;;4975238;28;20066;-80
2022/05/16 02:35:29;;;;;;;5.05;1.90;;;18.40;80.30;;;;;;4975886;28;20069;-79
2022/05/16 02:37:58;;;;;;;4.63;2.20;;;18.40;80.80;;;;;;4975980;28;20036;-78
2022/05/16 02:40:28;;;;;;;5.00;2.30;;;18.40;81.20;;;;;;4976278;28;20050;-79
2022/05/16 02:42:54;;;;;;;2.53;2.00;;;18.50;81.80;;;;;;4976260;28;20031;-77
2022/05/16 02:45:21;;;;;;;4.38;1.85;;;18.50;81.90;;;;;;4976786;28;20030;-78
2022/05/16 02:47:47;;;;;;;5.47;2.28;;;18.50;82.00;;;;;;4976263;28;20042;-78
2022/05/16 02:50:12;;;;;;;3.92;2.20;;;18.50;82.10;;;;;;4974783;28;20790;-78
2022/05/16 02:52:38;;;;;;;6.88;2.15;;;18.60;82.30;;;;;;4975551;28;20476;-79
2022/05/16 02:55:05;;;;;;;6.78;2.67;;;18.60;82.90;;;;;;4976448;28;20061;-79
2022/05/16 02:57:32;;;;;;;4.97;2.45;;;18.60;83.00;;;;;;4976802;28;20081;-79
2022/05/16 02:59:58;;;;;;;6.53;2.45;;;18.60;82.80;;;;;;4974904;28;20138;-78
2022/05/16 03:02:24;;;;;;;7.40;4.40;;;18.60;83.20;;;;;;4975711;28;20027;-79
2022/05/16 03:04:50;;;;;;;7.05;3.03;;;18.60;83.30;;;;;;4976381;28;20031;-76
2022/05/16 03:07:16;;;;;;;5.15;2.60;;;18.60;83.20;;;;;;4975065;28;20483;-80
2022/05/16 03:09:42;;;;;;;8.10;3.15;;;18.60;83.70;;;;;;4975245;28;20109;-78
2022/05/16 03:12:09;;;;;;;6.05;2.67;;;18.60;83.70;;;;;;4974232;28;20027;-78
2022/05/16 03:14:35;;;;;;;6.40;3.10;;;18.60;83.70;;;;;;4975166;28;20035;-80
2022/05/16 03:17:04;;;;;;;3.20;2.20;;;18.60;83.80;;;;;;4974543;28;20035;-81
2022/05/16 03:19:30;;;;;;;3.22;1.98;;;18.60;84.10;;;;;;4975517;28;20038;-80
2022/05/16 03:21:56;;;;;;;3.33;2.03;;;18.60;84.40;;;;;;4974486;28;20047;-79
2022/05/16 03:24:21;;;;;;;2.17;1.98;;;18.70;84.10;;;;;;4975655;28;20074;-79
2022/05/16 03:26:47;;;;;;;3.85;2.30;;;18.60;84.20;;;;;;4975309;28;20027;-80
2022/05/16 03:29:13;;;;;;;3.78;1.98;;;18.70;84.40;;;;;;4966809;28;20031;-80
2022/05/16 03:31:41;;;;;;;3.90;2.17;;;18.70;84.30;;;;;;4976267;28;20040;-80
2022/05/16 03:34:08;;;;;;;5.65;2.20;;;18.70;84.50;;;;;;4974206;28;20059;-79
2022/05/16 03:36:34;;;;;;;5.03;1.80;;;18.70;84.40;;;;;;4976136;28;20125;-78
2022/05/16 03:41:44;;;;;;;3.05;2.35;;;18.80;84.30;;;;;;4975817;28;20131;-79
2022/05/16 03:44:10;;;;;;;3.75;2.20;;;18.80;84.30;;;;;;4974067;28;20035;-79
2022/05/16 03:46:36;;;;;;;3.50;2.13;;;18.80;84.20;;;;;;4974631;28;20035;-79
2022/05/16 03:49:03;;;;;;;3.67;2.13;;;18.80;84.10;;;;;;4958038;28;20033;-78
2022/05/16 03:51:28;;;;;;;7.07;3.15;;;18.80;84.30;;;;;;4975787;28;20026;-79
2022/05/16 03:53:54;;;;;;;6.57;2.15;;;18.70;84.90;;;;;;4975269;28;20023;-77
2022/05/16 03:56:22;;;;;;;6.50;2.30;;;18.60;85.50;;;;;;4974346;28;20081;-80
2022/05/16 03:58:48;;;;;;;5.00;2.08;;;18.60;84.50;;;;;;4974466;28;20034;-79
2022/05/16 04:01:15;;;;;;;3.25;2.30;;;18.70;84.30;;;;;;4973590;28;20215;-79
2022/05/16 04:03:41;;;;;;;4.88;2.00;;;18.80;84.00;;;;;;4975210;28;20030;-79
2022/05/16 04:06:08;;;;;;;6.15;1.80;;;18.80;83.80;;;;;;4973356;28;20134;-78
2022/05/16 04:08:34;;;;;;;4.30;2.00;;;18.90;83.50;;;;;;4974123;28;20118;-78
2022/05/16 04:11:01;;;;;;;4.30;2.22;;;18.90;83.50;;;;;;4974309;28;20078;-78
2022/05/16 04:13:28;;;;;;;5.25;1.90;;;18.90;84.90;;;;;;4974065;28;20038;-78
2022/05/16 04:15:54;;;;;;;3.88;2.30;;;18.80;85.90;;;;;;4975269;28;20121;-79
2022/05/16 04:18:20;;;;;;;2.90;2.20;;;18.60;86.30;;;;;;4974844;28;20524;-79
2022/05/16 04:20:46;;;;;;;5.90;2.10;;;18.60;87.00;;;;;;4973705;28;20121;-78
2022/05/16 04:23:13;;;;;;;4.13;2.50;;;18.50;87.00;;;;;;4972840;28;20057;-78
2022/05/16 04:25:38;;;;;;;10.85;5.22;;;18.60;87.30;;;;;;4970777;28;20031;-78
2022/05/16 04:28:09;;;;;;;5.22;3.22;;;18.50;87.60;;;;;;4972062;28;20149;-78
2022/05/16 04:30:37;;;;;;;5.53;3.00;;;18.40;88.10;;;;;;4974006;28;20069;-79
2022/05/16 04:33:03;;;;;;;4.65;2.45;;;18.40;88.00;;;;;;4973126;28;20057;-78
2022/05/16 04:35:29;;;;;;;4.55;2.20;;;18.50;88.50;;;;;;4973940;28;20114;-79
2022/05/16 04:37:54;;;;;;;3.72;2.20;;;18.50;88.70;;;;;;4974819;28;20074;-79
2022/05/16 04:40:21;;;;;;;4.32;2.05;;;18.40;88.60;;;;;;4973541;28;20023;-79
2022/05/16 04:42:48;;;;;;;4.10;2.10;;;18.40;88.80;;;;;;4973825;28;20031;-79
2022/05/16 04:45:16;;;;;;;2.83;2.20;;;18.40;89.10;;;;;;4974458;28;20026;-79
2022/05/16 04:47:44;;;;;;;3.83;2.33;;;18.40;89.30;;;;;;4973948;28;20480;-80
2022/05/16 04:50:12;;;;;;;4.20;2.17;;;18.40;89.80;;;;;;4972951;28;20027;-80
2022/05/16 04:52:37;;;;;;;5.55;2.13;;;18.30;90.00;;;;;;4974486;28;20033;-78
2022/05/16 04:55:04;;;;;;;2.75;2.05;;;18.30;90.10;;;;;;4972748;28;20031;-77
2022/05/16 04:57:29;;;;;;;3.00;2.35;;;18.30;90.20;;;;;;4974604;28;20031;-78
2022/05/16 04:59:55;;;;;;;4.60;2.50;;;18.30;90.40;;;;;;4973698;28;20077;-78
2022/05/16 05:02:21;;;;;;;3.08;1.95;;;18.30;90.50;;;;;;4972718;28;20469;-78
2022/05/16 05:04:46;;;;;;;2.78;2.03;;;18.30;90.60;;;;;;4973228;28;20455;-77
2022/05/16 05:07:12;;;;;;;4.85;2.22;;;18.40;90.80;;;;;;4972970;28;20022;-77
2022/05/16 05:15:17;;;;;;;2.60;2.00;;;18.40;91.20;;;;;;4993321;28;20042;-81
2022/05/16 05:17:43;;;;;;;4.85;2.35;;;18.50;91.30;;;;;;4993048;28;20231;-79
2022/05/16 05:20:13;;;;;;;4.47;2.42;;;18.50;91.70;;;;;;4992450;28;20081;-79
2022/05/16 05:22:44;;;;;;;6.68;2.78;;;18.40;91.80;;;;;;4992650;28;20081;-78
2022/05/16 05:25:13;;;;;;;5.70;2.35;;;18.40;91.90;;;;;;4993430;28;20050;-78
2022/05/16 05:27:39;;;;;;;4.85;2.85;;;18.50;92.00;;;;;;4953933;29;20031;-78
2022/05/16 05:30:08;;;;;;;9.40;3.10;;;18.50;91.90;;;;;;4953359;28;20038;-78
2022/05/16 05:32:33;;;;;;;5.68;2.53;;;18.40;91.80;;;;;;4940625;29;20054;-79
2022/05/16 05:34:59;;;;;;;6.40;2.47;;;18.40;91.70;;;;;;4941616;29;20055;-77
2022/05/16 05:37:24;;;;;;;3.83;2.22;;;18.40;91.80;;;;;;4945124;28;20074;-78
2022/05/16 05:39:52;;;;;;;6.45;2.55;;;18.40;91.80;;;;;;4976985;28;20100;-79
2022/05/16 05:42:18;;;;;;;3.60;2.30;;;18.40;91.90;;;;;;4977317;28;20027;-78
2022/05/16 05:44:44;;;;;;;6.70;2.95;;;18.50;92.00;;;;;;4976446;28;20041;-79
2022/05/16 05:47:09;;;;;;;3.78;2.20;;;18.50;92.00;;;;;;4975897;28;20027;-78
2022/05/16 05:49:36;;;;;;;4.55;2.28;;;18.60;92.50;;;;;;4976863;28;20472;-79
2022/05/16 05:52:02;;;;;;;5.78;2.47;;;18.70;92.50;;;;;;4977435;28;20022;-77
2022/05/16 05:54:28;;;;;;;4.63;2.47;;;18.70;92.70;;;;;;4976561;28;20035;-79
2022/05/16 05:56:54;;;;;;;5.15;2.47;;;18.70;92.70;;;;;;4976720;28;20038;-80
2022/05/16 05:59:20;;;;;;;4.65;2.72;;;18.80;92.90;;;;;;4976331;28;20023;-79
2022/05/16 06:01:46;;;;;;;5.75;2.80;;;18.80;93.20;;;;;;4977191;28;20019;-79
2022/05/16 06:04:11;;;;;;;4.70;2.70;;;18.80;93.30;;;;;;4995175;28;20030;-79
2022/05/16 06:06:37;;;;;;;5.60;2.78;;;19.00;93.60;;;;;;4979618;28;20069;-79
2022/05/16 06:09:03;;;;;;;6.05;3.10;;;19.00;93.80;;;;;;4979122;28;20519;-78
2022/05/16 06:11:29;;;;;;;3.70;2.88;;;19.10;93.90;;;;;;4976287;28;20384;-79
2022/05/16 06:13:56;;;;;;;5.68;3.03;;;19.10;94.00;;;;;;4976127;28;20034;-78
2022/05/16 06:16:22;;;;;;;4.93;2.80;;;19.10;94.20;;;;;;4993045;28;20529;-78
2022/05/16 06:18:47;;;;;;;4.38;2.85;;;19.20;94.20;;;;;;4995480;28;20030;-78
2022/05/16 06:21:13;;;;;;;8.23;3.13;;;19.20;94.20;;;;;;4978584;28;20026;-79
2022/05/16 06:23:39;;;;;;;4.45;2.50;;;19.20;94.50;;;;;;4995429;28;20046;-80
2022/05/16 06:26:05;;;;;;;6.80;2.55;;;19.30;94.40;;;;;;4989679;28;20022;-79
2022/05/16 06:28:37;;;;;;;6.07;2.72;;;19.40;94.50;;;;;;4975814;28;20082;-79
2022/05/16 06:31:04;;;;;;;5.30;2.60;;;19.40;94.40;;;;;;4976936;28;20497;-75
2022/05/16 06:33:30;;;;;;;4.95;3.15;;;19.50;94.40;;;;;;4975631;28;20069;-81
2022/05/16 06:35:56;;;;;;;10.23;3.40;;;19.50;94.60;;;;;;4976538;28;20081;-78
2022/05/16 06:38:31;;;;;;;5.20;3.38;;;19.50;94.70;;;;;;4972023;28;20022;-78
2022/05/16 06:40:58;;;;;;;4.07;3.10;;;19.60;95.40;;;;;;4986074;28;20019;-81
2022/05/16 06:43:26;;;;;;;8.50;3.65;;;19.60;95.80;;;;;;4974794;28;20031;-79
2022/05/16 06:45:52;;;;;;;8.13;3.45;;;19.60;96.20;;;;;;4976465;28;20026;-79
2022/05/16 06:48:18;;;;;;;6.45;3.08;;;19.70;96.30;;;;;;4975705;28;20114;-78
2022/05/16 06:50:45;;;;;;;6.32;2.97;;;19.70;96.10;;;;;;4974730;28;20408;-78
2022/05/16 06:53:14;;;;;;;6.88;3.45;;;19.80;96.40;;;;;;4974560;28;20057;-78
2022/05/16 06:55:40;;;;;;;6.35;2.95;;;19.90;96.20;;;;;;4972389;28;20102;-79
2022/05/16 06:58:06;;;;;;;6.43;3.00;;;20.10;95.80;;;;;;4975706;28;20050;-77
2022/05/16 07:00:31;;;;;;;9.05;2.78;;;20.20;95.00;;;;;;4974833;28;20128;-78
2022/05/16 07:02:57;;;;;;;5.68;3.00;;;20.30;93.90;;;;;;4974801;28;20117;-78
2022/05/16 07:05:22;;;;;;;8.15;3.30;;;20.30;93.40;;;;;;4974140;28;20027;-78
2022/05/16 07:07:48;;;;;;;3.78;2.97;;;20.40;93.00;;;;;;4982404;28;20026;-81
2022/05/16 07:10:14;;;;;;;5.07;2.60;;;20.40;93.00;;;;;;4992607;28;20117;-78
2022/05/16 07:12:39;;;;;;;6.18;2.83;;;20.50;92.50;;;;;;4974766;28;20073;-79
2022/05/16 07:15:05;;;;;;;7.53;2.70;;;20.50;92.10;;;;;;4975619;28;20026;-77
2022/05/16 07:17:31;;;;;;;5.20;2.83;;;20.60;92.20;;;;;;4972501;28;20053;-76
2022/05/16 07:19:57;;;;;;;4.68;2.67;;;20.70;92.10;;;;;;4971470;28;20042;-75
2022/05/16 07:22:23;;;;;;;8.68;2.97;;;20.70;91.90;;;;;;4974005;28;20078;-76
2022/05/16 07:24:51;;;;;;;4.68;2.55;;;20.70;91.80;;;;;;4973299;28;20041;-76
2022/05/16 07:30:03;;;;;;;2.78;2.40;;;20.90;91.90;;;;;;4972083;28;20091;-76
2022/05/16 07:32:37;;;;;;;5.25;2.63;;;21.00;92.00;;;;;;4972336;28;20031;-76
2022/05/16 07:35:05;;;;;;;5.00;2.58;;;21.10;91.40;;;;;;4971647;28;20365;-76
2022/05/16 07:37:31;;;;;;;6.18;3.00;;;21.10;91.50;;;;;;4955968;28;20087;-78
2022/05/16 07:39:58;;;;;;;4.20;2.78;;;21.20;91.40;;;;;;4973617;28;20077;-78
2022/05/16 07:42:24;;;;;;;5.45;3.08;;;21.20;91.50;;;;;;4972835;28;20093;-79
2022/05/16 07:44:50;;;;;;;6.45;2.50;;;21.30;91.30;;;;;;4973730;28;20031;-80
2022/05/16 07:47:16;;;;;;;7.82;2.67;;;21.30;91.30;;;;;;4974955;28;20038;-79
2022/05/16 07:49:42;;;;;;;5.90;2.80;;;21.30;91.10;;;;;;4974527;28;20026;-79
2022/05/16 07:52:08;;;;;;;4.88;2.70;;;21.30;91.10;;;;;;4974452;28;20027;-77
2022/05/16 07:54:34;;;;;;;5.15;2.67;;;21.30;91.20;;;;;;4972384;28;20480;-77
2022/05/16 07:57:02;;;;;;;5.40;3.10;;;21.30;91.30;;;;;;4957281;28;20026;-78
2022/05/16 07:59:28;;;;;;;8.23;3.47;;;21.30;91.40;;;;;;4956541;28;20117;-78
2022/05/16 08:01:54;;;;;;;7.30;3.47;;;21.40;91.60;;;;;;4972606;28;20109;-79
2022/05/16 08:04:19;;;;;;;5.15;2.97;;;21.40;91.40;;;;;;4972168;28;20077;-78
2022/05/16 08:06:45;;;;;;;9.50;3.60;;;21.40;91.40;;;;;;4984773;28;20388;-78
2022/05/16 08:11:55;;;;;;;9.55;3.65;;;21.30;91.90;;;;;;4972905;28;20081;-79
2022/05/16 08:14:21;;;;;;;7.45;3.90;;;21.30;91.90;;;;;;4972145;28;20038;-82
2022/05/16 08:16:47;;;;;;;5.32;3.35;;;21.30;92.20;;;;;;4955777;28;20023;-80
2022/05/16 08:19:13;;;;;;;4.53;2.95;;;21.20;92.50;;;;;;4973250;28;20062;-81
2022/05/16 08:21:41;;;;;;;7.95;3.25;;;21.20;92.70;;;;;;4972941;28;20073;-78
2022/05/16 08:24:09;;;;;;;7.82;2.92;;;21.10;92.80;;;;;;4971709;28;20448;-77
2022/05/16 08:26:36;;;;;;;6.30;2.83;;;21.10;93.30;;;;;;4972168;28;20037;-78
2022/05/16 08:29:02;;;;;;;7.15;2.78;;;21.10;93.40;;;;;;4973336;28;20392;-79
2022/05/16 08:31:28;;;;;;;4.60;3.00;;;21.10;93.50;;;;;;4969003;28;20023;-81
2022/05/16 08:33:56;;;;;;;6.88;2.88;;;21.10;93.80;;;;;;4971359;28;20062;-77
2022/05/16 08:41:59;;;;;;;5.95;3.00;;;21.20;93.80;;;;;;4973149;28;20102;-76
2022/05/16 08:44:41;;;;;;;5.00;2.88;;;21.30;93.90;;;;;;4970401;28;20034;-77
2022/05/16 08:47:25;;;;;;;7.68;2.83;;;21.40;93.80;;;;;;4964072;28;20452;-77
2022/05/16 08:49:56;;;;;;;6.30;2.80;;;21.60;93.70;;;;;;4972301;28;20046;-78
2022/05/16 08:52:37;;;;;;;6.72;2.58;;;21.70;93.30;;;;;;4971808;28;20022;-80
2022/05/16 08:55:15;;;;;;;6.10;3.20;;;21.80;93.10;;;;;;4971861;28;20065;-80
2022/05/16 08:57:52;;;;;;;7.05;3.10;;;21.90;92.30;;;;;;4956907;28;20023;-79
2022/05/16 09:00:28;;;;;;;5.47;3.13;;;22.00;92.20;;;;;;4971996;28;20392;-79
2022/05/16 09:02:55;;;;;;;8.43;3.55;;;22.10;92.40;;;;;;4972600;28;20062;-77
2022/05/16 09:05:34;;;;;;;6.10;3.28;;;22.20;91.40;;;;;;4972667;28;20057;-77
2022/05/16 09:08:00;;;;;;;4.97;2.60;;;22.30;90.10;;;;;;4978240;28;20058;-77
2022/05/16 09:10:51;;;;;;;6.65;3.35;;;22.40;90.00;;;;;;4961442;28;20041;-77
2022/05/16 09:13:37;;;;;;;9.95;3.15;;;22.50;89.20;;;;;;4951727;28;20034;-77
2022/05/16 09:16:25;;;;;;;7.78;2.85;;;22.60;88.40;;;;;;4962353;28;20050;-77
2022/05/16 09:19:16;;;;;;;6.55;3.17;;;22.60;88.00;;;;;;4978410;28;20054;-77
2022/05/16 09:22:08;;;;;;;8.05;3.20;;;22.80;88.10;;;;;;4975600;28;20121;-77
2022/05/16 09:24:49;;;;;;;7.00;2.83;;;22.90;87.70;;;;;;4975175;28;20042;-77
2022/05/16 09:30:10;;;;;;;8.57;3.28;;;23.30;86.70;;;;;;4978812;28;20073;-77
2022/05/16 09:32:41;;;;;;;8.82;3.30;;;23.40;86.00;;;;;;4980894;28;20043;-78
2022/05/16 09:35:36;;;;;;;7.60;2.58;;;23.50;86.00;;;;;;4977563;28;20074;-77
2022/05/16 09:38:03;;;;;;;6.28;2.63;;;23.60;83.00;;;;;;4977269;28;20035;-76
2022/05/16 09:40:34;;;;;;;4.47;1.80;;;23.70;82.40;;;;;;4974722;28;20094;-76
2022/05/16 09:43:14;;;;;;;6.13;2.10;;;23.70;80.90;;;;;;4961325;28;20078;-79
2022/05/16 09:45:44;;;;;;;5.65;1.80;;;23.70;80.40;;;;;;4979087;28;20106;-76
2022/05/16 09:48:20;;;;;;;3.47;1.58;;;23.70;78.80;;;;;;4977782;28;20522;-77
2022/05/16 09:50:57;;;;;;;5.13;1.50;;;23.80;77.30;;;;;;4977930;28;20054;-77
2022/05/16 09:53:43;;;;;;;5.25;1.85;;;23.90;76.80;;;;;;4975502;28;20120;-77
2022/05/16 09:56:30;;;;;;;4.13;1.40;;;23.90;75.90;;;;;;4976970;28;20125;-81
2022/05/16 09:59:05;;;;;;;8.57;1.27;;;24.00;75.80;;;;;;4967602;28;20023;-81
2022/05/16 10:01:45;;;;;;;5.80;1.27;;;24.00;75.10;;;;;;4976969;28;20059;-81
2022/05/16 10:04:15;;;;;;;6.05;1.27;;;24.10;75.40;;;;;;4992257;28;20034;-78
2022/05/16 10:06:54;;;;;;;6.80;1.30;;;24.00;74.80;;;;;;4983329;28;20019;-78
2022/05/16 10:09:29;;;;;;;4.18;1.42;;;24.00;75.20;;;;;;4977502;28;20034;-78
2022/05/16 10:11:57;;;;;;;12.27;1.60;;;23.90;75.80;;;;;;4974923;28;20035;-79
2022/05/16 10:14:23;;;;;;;6.30;1.85;;;23.70;75.60;;;;;;4987112;28;20045;-77
2022/05/16 10:16:51;;;;;;;6.45;1.50;;;23.60;76.30;;;;;;4977522;28;20026;-77
2022/05/16 10:19:27;;;;;;;12.07;1.80;;;23.60;75.80;;;;;;4980915;28;20100;-78
2022/05/16 10:22:05;;;;;;;5.60;1.58;;;23.60;76.30;;;;;;4974829;28;20019;-78
2022/05/16 10:24:38;;;;;;;5.53;1.30;;;23.70;76.00;;;;;;4951386;28;20050;-78
2022/05/16 10:27:09;;;;;;;7.50;1.90;;;23.60;75.40;;;;;;4974891;28;20034;-77
2022/05/16 10:29:40;;;;;;;10.02;2.35;;;23.70;75.60;;;;;;4976160;28;20015;-78
2022/05/16 10:35:12;;;;;;;4.10;1.23;;;23.50;75.60;;;;;;4989828;28;20411;-78
2022/05/16 10:37:43;;;;;;;7.10;1.45;;;23.40;76.30;;;;;;4975106;28;20018;-77
2022/05/16 10:40:15;;;;;;;4.10;1.40;;;23.20;76.80;;;;;;4974254;28;20058;-77
2022/05/16 10:43:04;;;;;;;5.78;1.15;;;23.10;77.30;;;;;;4975217;28;20035;-77
2022/05/16 10:45:31;;;;;;;2.00;0.98;;;22.90;77.80;;;;;;4954842;29;20019;-78
2022/05/16 10:48:09;;;;;;;3.53;0.90;;;22.70;77.60;;;;;;4954208;28;20487;-78
2022/05/16 10:50:50;;;;;;;7.45;1.23;;;22.50;78.40;;;;;;4959855;28;20491;-79
2022/05/16 10:54:02;;;;;;;3.17;0.95;;;22.30;79.20;;;;;;4973930;28;20058;-78
2022/05/16 10:56:50;;;;;;;2.78;1.23;;;21.90;81.50;;;;;;4944385;28;20090;-77
2022/05/16 10:59:31;;;;;;;3.13;0.90;;;21.60;84.00;;;;;;4957590;28;20038;-77
2022/05/16 11:02:30;;;;;;;2.60;1.20;;;21.40;87.00;;;;;;4953994;28;20019;-78
2022/05/16 11:05:20;;;;;;;3.08;0.90;;;21.00;90.60;;;;;;4965297;28;20027;-78
2022/05/16 11:08:22;;;;;;;3.25;0.95;;;20.90;91.10;;;;;;4958188;28;20469;-77
2022/05/16 11:11:25;;;;;;;2.83;0.98;;;20.80;91.70;;;;;;4949843;28;20130;-79
2022/05/16 11:14:19;;;;;;;3.55;1.00;;;20.70;92.00;;;;;;4954852;29;20441;-77
2022/05/16 11:16:45;;;;;;;4.35;1.00;;;20.60;92.90;;;;;;4944555;28;20472;-76
2022/05/16 11:19:31;;;;;;;6.13;1.10;;;20.60;93.30;;;;;;4980231;28;20038;-77
2022/05/16 11:22:34;;;;;;;6.97;2.30;;;20.50;94.10;;;;;;4973351;28;20468;-77
2022/05/16 11:25:08;;;;;;;4.30;2.42;;;20.40;94.90;;;;;;4960933;28;20061;-77
2022/05/16 11:27:52;;;;;;;4.50;1.25;;;20.50;95.60;;;;;;4954165;29;20035;-76
2022/05/16 11:30:33;;;;;;;4.15;0.93;;;20.50;95.60;;;;;;4952984;29;20027;-77
2022/05/16 11:33:14;;;;;;;3.17;1.20;;;20.50;96.20;;;;;;4967312;28;20086;-76
2022/05/16 11:35:43;;;;;;;4.13;1.50;;;20.50;96.10;;;;;;4974940;28;20023;-77
2022/05/16 11:38:28;;;;;;;2.65;1.10;;;20.60;96.30;;;;;;4957031;28;20086;-76
2022/05/16 11:41:08;;;;;;;4.00;2.20;;;20.70;96.20;;;;;;4957632;28;20092;-76
2022/05/16 11:43:40;;;;;;;6.33;1.10;;;20.80;96.30;;;;;;4967239;28;20113;-77
2022/05/16 11:46:15;;;;;;;4.28;1.13;;;20.70;96.30;;;;;;4965888;28;20027;-77
2022/05/16 11:49:15;;;;;;;7.05;1.58;;;20.60;97.00;;;;;;4957663;28;20488;-77
2022/05/16 11:51:50;;;;;;;2.45;1.35;;;20.60;97.50;;;;;;4951096;28;20114;-76
2022/05/16 11:54:20;;;;;;;2.78;1.50;;;20.50;97.80;;;;;;4973665;28;20035;-80
2022/05/16 12:02:28;;;;;;;4.22;1.50;;;20.50;98.70;;;;;;4981368;28;20099;-76
2022/05/16 12:05:09;;;;;;;5.00;1.40;;;20.50;98.90;;;;;;4953948;29;20062;-77
2022/05/16 12:07:35;;;;;;;2.53;1.10;;;20.60;98.40;;;;;;4973993;28;20029;-76
2022/05/16 12:10:10;;;;;;;5.65;1.17;;;20.60;97.10;;;;;;4974410;28;20026;-77
2022/05/16 12:12:38;;;;;;;2.75;1.02;;;20.80;96.90;;;;;;4950551;28;20460;-77
2022/05/16 12:15:16;;;;;;;5.00;0.90;;;20.90;96.10;;;;;;4956361;28;20034;-76
2022/05/16 12:18:06;;;;;;;2.80;0.95;;;21.00;96.00;;;;;;4956592;28;20034;-77
2022/05/16 12:20:43;;;;;;;2.53;1.00;;;21.20;96.10;;;;;;4954482;29;20085;-76
2022/05/16 12:23:11;;;;;;;2.97;0.80;;;21.30;96.00;;;;;;4971450;28;20051;-77
2022/05/16 12:25:38;;;;;;;3.42;0.90;;;21.40;96.00;;;;;;4972662;28;20122;-77
2022/05/16 12:28:13;;;;;;;1.70;0.93;;;21.50;95.30;;;;;;4972386;28;20118;-76
2022/05/16 12:30:57;;;;;;;3.95;1.25;;;21.70;94.80;;;;;;4973897;28;20050;-76
2022/05/16 12:33:26;;;;;;;3.55;0.70;;;21.90;94.30;;;;;;4963083;28;20030;-76
2022/05/16 12:35:53;;;;;;;1.83;0.77;;;21.90;93.70;;;;;;4953533;29;20382;-77
2022/05/16 12:38:22;;;;;;;3.78;0.82;;;22.00;93.50;;;;;;4953257;29;20051;-76
2022/05/16 12:41:12;;;;;;;3.22;0.70;;;22.20;93.50;;;;;;4951774;28;20023;-77
2022/05/16 12:43:41;;;;;;;3.05;1.10;;;22.20;92.80;;;;;;4950051;28;20034;-76
2022/05/16 12:46:32;;;;;;;5.60;0.93;;;22.40;92.70;;;;;;4973314;28;20034;-77
2022/05/16 12:49:06;;;;;;;5.63;0.73;;;22.60;91.90;;;;;;4973635;28;20030;-77
2022/05/16 12:51:44;;;;;;;4.22;1.08;;;23.00;91.90;;;;;;4965838;28;20456;-77
2022/05/16 12:54:48;;;;;;;1.85;0.80;;;23.30;91.40;;;;;;4953466;28;20445;-77
2022/05/16 12:57:41;;;;;;;2.28;1.02;;;23.20;90.20;;;;;;4894253;29;20123;-77
2022/05/16 13:00:16;;;;;;;2.83;1.00;;;23.20;90.80;;;;;;4969089;28;20121;-78
2022/05/16 13:02:53;;;;;;;3.67;1.00;;;23.20;91.00;;;;;;4974176;28;20022;-77
2022/05/16 13:05:39;;;;;;;3.00;1.02;;;23.30;90.30;;;;;;4955996;28;20022;-77
2022/05/16 13:08:28;;;;;;;3.72;0.95;;;23.60;90.30;;;;;;4972782;28;20027;-77
2022/05/16 13:11:30;;;;;;;2.97;1.00;;;23.80;89.40;;;;;;4973704;28;20026;-78
2022/05/16 13:14:17;;;;;;;3.15;0.90;;;24.00;87.80;;;;;;4929603;28;20120;-77
2022/05/16 13:17:06;;;;;;;2.92;0.77;;;24.10;87.40;;;;;;4964874;28;20027;-78
2022/05/16 13:19:35;;;;;;;4.57;1.83;;;24.00;87.10;;;;;;4971571;28;20468;-77
2022/05/16 13:22:00;;;;;;;3.97;1.55;;;24.10;86.80;;;;;;4972338;28;20034;-76
2022/05/16 13:24:27;;;;;;;8.18;2.90;;;24.30;86.20;;;;;;4955903;28;20791;-77
2022/05/16 13:29:41;;;;;;;4.70;2.20;;;25.20;82.50;;;;;;4973844;28;20054;-77
2022/05/16 13:32:19;;;;;;;6.63;2.42;;;25.30;81.10;;;;;;4953779;28;20031;-77
2022/05/16 13:34:49;;;;;;;6.13;2.00;;;25.60;79.70;;;;;;4972525;28;20472;-77
2022/05/16 13:37:24;;;;;;;3.53;1.30;;;25.70;80.50;;;;;;4972067;28;20387;-77
2022/05/16 13:39:56;;;;;;;2.53;1.20;;;25.80;79.10;;;;;;4972670;28;20027;-77
2022/05/16 13:42:22;;;;;;;3.65;1.48;;;26.40;77.90;;;;;;4972032;28;20027;-77
2022/05/16 13:44:49;;;;;;;4.53;1.17;;;26.60;76.20;;;;;;4972258;28;20050;-77